Saint-Jean-sur-Richelieu, Canada
Current Conditions -  °F | °C
As of 9:00 PM on Sunday 23 Nov 2014 (Local Time) from CYHU Reporting Station
Overcast Overcast  
Wind Chill: 39°   Ceiling: 6500
Heat Index: 43°   Visibility: 8mi
Dew Point: 39°   Wind: 7mph
Humidity: 87%   Direction: 130°SE
Pressure: 29.98"   Gusts: NA
Location:  45.32°N, 73.27°W
Report Text: CYHU 240200Z AUTO 13006KT 8SM FEW038 SCT047 OVC065 06/04 A2998 RMK SLP153
Loading
Personal Weather Stations






























Interactive Weather Map New forecast layout! Learn more

10-Day Weather Forecast

Advertisements
Track Severe Weather on mobile